createdAt,value
2023-03-29T00:02:07.836Z,72.67
2023-03-29T00:04:38.992Z,72.66
2023-03-29T00:07:09.868Z,72.47
2023-03-29T00:09:40.907Z,72.27
2023-03-29T00:12:12.667Z,72.30
2023-03-29T00:14:46.763Z,72.36
2023-03-29T00:17:17.697Z,72.18
2023-03-29T00:19:49.342Z,72.12
2023-03-29T00:22:20.012Z,72.54
2023-03-29T00:24:53.677Z,72.45
2023-03-29T00:27:24.460Z,72.57
2023-03-29T00:29:54.996Z,72.60
2023-03-29T00:32:25.926Z,72.72
2023-03-29T00:34:56.880Z,72.23
2023-03-29T00:37:32.615Z,72.20
2023-03-29T00:40:13.436Z,72.47
2023-03-29T00:43:02.336Z,72.23
2023-03-29T00:45:34.688Z,72.39
2023-03-29T00:48:09.670Z,72.21
2023-03-29T00:50:44.363Z,72.42
2023-03-29T00:53:23.889Z,72.25
2023-03-29T00:56:06.415Z,72.05
2023-03-29T00:58:40.488Z,72.03
2023-03-29T01:01:15.690Z,71.93
2023-03-29T01:03:55.262Z,71.67
2023-03-29T01:06:29.874Z,72.09
2023-03-29T01:09:03.971Z,71.91
2023-03-29T01:11:43.239Z,71.99
2023-03-29T01:14:21.946Z,71.97
2023-03-29T01:16:53.413Z,71.99
2023-03-29T01:19:27.073Z,71.67
2023-03-29T01:22:01.992Z,71.94
2023-03-29T01:24:47.033Z,72.21
2023-03-29T01:27:53.943Z,72.30
2023-03-29T01:30:36.368Z,72.58
2023-03-29T01:33:12.998Z,72.45
2023-03-29T01:35:46.625Z,72.38
2023-03-29T01:38:20.636Z,72.51
2023-03-29T01:40:52.822Z,72.21
2023-03-29T01:43:35.215Z,72.06
2023-03-29T01:46:39.191Z,72.24
2023-03-29T01:49:15.687Z,72.72
2023-03-29T01:52:01.400Z,72.64
2023-03-29T01:54:37.956Z,72.71
2023-03-29T01:57:11.867Z,72.37
2023-03-29T01:59:45.814Z,72.88
2023-03-29T02:02:19.360Z,72.85
2023-03-29T02:04:53.603Z,72.80
2023-03-29T02:07:27.290Z,72.76
2023-03-29T02:09:59.662Z,72.84
2023-03-29T02:12:30.294Z,72.67
2023-03-29T02:15:01.350Z,72.83
2023-03-29T02:17:31.915Z,72.28
2023-03-29T02:20:21.580Z,72.63
2023-03-29T02:23:20.473Z,72.46
2023-03-29T02:25:56.538Z,72.46
2023-03-29T02:28:28.472Z,72.26
2023-03-29T02:31:07.845Z,72.10
2023-03-29T02:33:58.599Z,72.17
2023-03-29T02:36:47.136Z,72.03
2023-03-29T02:39:20.762Z,72.31
2023-03-29T02:41:53.119Z,71.82
2023-03-29T02:44:27.296Z,72.28
2023-03-29T02:47:03.882Z,72.00
2023-03-29T02:49:34.797Z,72.13
2023-03-29T02:52:10.927Z,72.54
2023-03-29T02:54:43.273Z,72.60
2023-03-29T02:57:15.662Z,72.73
2023-03-29T02:59:46.555Z,72.26
2023-03-29T03:02:17.961Z,72.41
2023-03-29T03:04:48.873Z,72.52
2023-03-29T03:07:20.885Z,72.55
2023-03-29T03:09:53.294Z,72.72
2023-03-29T03:12:23.852Z,72.66
2023-03-29T03:14:54.621Z,72.82
2023-03-29T03:17:27.772Z,72.87
2023-03-29T03:19:58.268Z,73.03
2023-03-29T03:22:28.985Z,72.97
2023-03-29T03:24:59.594Z,73.01
2023-03-29T03:27:30.249Z,72.78
2023-03-29T03:30:02.005Z,72.69
2023-03-29T03:32:33.681Z,72.39
2023-03-29T03:35:05.766Z,72.58
2023-03-29T03:37:36.222Z,72.30
2023-03-29T03:40:13.466Z,72.48
2023-03-29T03:42:44.166Z,72.05
2023-03-29T03:45:17.863Z,71.99
2023-03-29T03:47:48.712Z,72.10
2023-03-29T03:50:19.348Z,71.85
2023-03-29T03:52:49.890Z,71.98
2023-03-29T03:55:22.067Z,71.91
2023-03-29T03:57:53.278Z,71.68
2023-03-29T04:00:25.024Z,71.77
2023-03-29T04:02:57.495Z,71.79
2023-03-29T04:05:29.768Z,71.74
2023-03-29T04:08:00.836Z,71.46
2023-03-29T04:10:31.450Z,71.30
2023-03-29T04:13:03.519Z,71.78
2023-03-29T04:15:37.135Z,71.60
2023-03-29T04:18:07.871Z,71.45
2023-03-29T04:20:39.400Z,71.60
2023-03-29T04:23:14.109Z,72.20
2023-03-29T04:25:45.664Z,72.13
2023-03-29T04:28:17.777Z,72.50
2023-03-29T04:30:48.935Z,72.33
2023-03-29T04:33:22.552Z,72.04
2023-03-29T04:35:53.469Z,72.61
2023-03-29T04:38:24.158Z,72.51
2023-03-29T04:40:58.078Z,72.14
2023-03-29T04:43:30.243Z,72.16
2023-03-29T04:46:02.175Z,72.20
2023-03-29T04:48:35.284Z,72.22
2023-03-29T04:51:06.512Z,72.50
2023-03-29T04:53:40.469Z,72.15
2023-03-29T04:56:11.012Z,72.30
2023-03-29T04:58:44.188Z,72.51
2023-03-29T05:01:18.721Z,73.50
2023-03-29T05:03:51.001Z,72.83
2023-03-29T05:06:21.677Z,72.32
2023-03-29T05:08:52.271Z,72.64
2023-03-29T05:11:26.180Z,72.49
2023-03-29T05:13:58.529Z,72.11
2023-03-29T05:16:32.277Z,71.90
2023-03-29T05:19:03.560Z,71.80
2023-03-29T05:21:35.210Z,71.71
2023-03-29T05:24:06.202Z,71.60
2023-03-29T05:26:38.749Z,71.49
2023-03-29T05:29:09.098Z,71.45
2023-03-29T05:31:39.683Z,71.46
2023-03-29T05:34:12.185Z,71.45
2023-03-29T05:36:43.400Z,71.11
2023-03-29T05:39:14.055Z,71.28
2023-03-29T05:41:47.098Z,71.26
2023-03-29T05:44:17.784Z,70.66
2023-03-29T05:46:50.040Z,70.59
2023-03-29T05:49:21.425Z,70.53
2023-03-29T05:51:52.260Z,70.80
2023-03-29T05:54:22.851Z,70.03
2023-03-29T05:56:55.178Z,70.29
2023-03-29T05:59:27.380Z,69.45
2023-03-29T06:01:59.552Z,69.55
2023-03-29T06:04:30.741Z,68.81
2023-03-29T06:07:06.150Z,68.19
2023-03-29T06:09:36.618Z,67.98
2023-03-29T06:12:07.584Z,67.60
2023-03-29T06:14:38.466Z,67.46
2023-03-29T06:17:09.009Z,67.11
2023-03-29T06:19:40.420Z,67.41
2023-03-29T06:22:13.687Z,67.60
2023-03-29T06:24:44.355Z,67.31
2023-03-29T06:27:15.479Z,67.09
2023-03-29T06:29:46.122Z,67.09
2023-03-29T06:32:16.832Z,66.48
2023-03-29T06:34:47.389Z,65.66
2023-03-29T06:37:18.030Z,65.30
2023-03-29T06:39:53.376Z,65.32
2023-03-29T06:42:24.352Z,65.51
2023-03-29T06:44:55.468Z,65.37
2023-03-29T06:47:28.062Z,65.50
2023-03-29T06:49:58.705Z,65.19
2023-03-29T06:52:29.358Z,65.05
2023-03-29T06:55:01.730Z,64.41
2023-03-29T06:57:33.871Z,64.95
2023-03-29T07:00:12.710Z,64.39
2023-03-29T07:02:43.470Z,63.62
2023-03-29T07:05:21.653Z,64.02
2023-03-29T07:07:59.566Z,64.17
2023-03-29T07:10:33.096Z,64.00
2023-03-29T07:13:09.172Z,62.93
2023-03-29T07:15:40.546Z,62.63
2023-03-29T07:18:14.274Z,62.29
2023-03-29T07:20:46.291Z,61.96
2023-03-29T07:23:17.923Z,61.27
2023-03-29T07:25:48.513Z,59.31
2023-03-29T07:28:21.414Z,59.12
2023-03-29T07:30:52.010Z,57.99
2023-03-29T07:33:22.673Z,56.36
2023-03-29T07:35:53.354Z,56.17
2023-03-29T07:38:25.300Z,58.01
2023-03-29T07:40:56.475Z,58.64
2023-03-29T07:43:26.975Z,57.00
2023-03-29T07:45:59.353Z,57.23
2023-03-29T07:48:30.062Z,56.46
2023-03-29T07:51:01.017Z,55.48
2023-03-29T07:53:33.652Z,54.68
2023-03-29T07:56:04.660Z,55.58
2023-03-29T07:58:36.902Z,55.55
2023-03-29T08:01:10.901Z,54.75
2023-03-29T08:03:42.173Z,54.63
2023-03-29T08:06:12.840Z,53.98
2023-03-29T08:08:44.172Z,54.17
2023-03-29T08:11:15.609Z,53.60
2023-03-29T08:13:46.211Z,54.94
2023-03-29T08:16:16.985Z,54.46
2023-03-29T08:18:48.693Z,54.04
2023-03-29T08:21:22.419Z,54.89
2023-03-29T08:23:53.287Z,55.31
2023-03-29T08:26:24.460Z,55.74
2023-03-29T08:28:55.051Z,55.90
2023-03-29T08:31:25.977Z,56.38
2023-03-29T08:33:57.388Z,57.37
2023-03-29T08:36:28.114Z,57.38
2023-03-29T08:38:58.813Z,58.62
2023-03-29T08:41:49.042Z,59.36
2023-03-29T08:44:47.007Z,59.63
2023-03-29T08:47:23.447Z,59.28
2023-03-29T08:49:56.822Z,59.08
2023-03-29T08:52:37.863Z,59.33
2023-03-29T08:55:11.611Z,59.33
2023-03-29T08:57:51.834Z,58.40
2023-03-29T09:00:28.226Z,60.59
2023-03-29T09:03:01.054Z,58.42
2023-03-29T09:05:34.621Z,58.65
2023-03-29T09:08:07.281Z,55.86
2023-03-29T09:10:43.697Z,54.45
2023-03-29T09:13:17.429Z,55.32
2023-03-29T09:16:09.208Z,53.65
2023-03-29T09:18:59.733Z,53.49
2023-03-29T09:21:46.656Z,53.04
2023-03-29T09:24:38.704Z,53.15
2023-03-29T09:27:21.303Z,53.90
2023-03-29T09:29:58.357Z,54.67
2023-03-29T09:32:33.259Z,54.64
2023-03-29T09:35:17.638Z,54.37
2023-03-29T09:37:50.510Z,53.69
2023-03-29T09:40:35.930Z,53.72
2023-03-29T09:43:13.114Z,54.62
2023-03-29T09:45:45.099Z,54.08
2023-03-29T09:48:19.298Z,54.77
2023-03-29T09:50:52.759Z,54.58
2023-03-29T09:53:26.234Z,55.55
2023-03-29T09:55:57.009Z,54.25
2023-03-29T09:58:31.676Z,55.14
2023-03-29T10:01:05.990Z,54.44
2023-03-29T10:03:38.220Z,53.43
2023-03-29T10:06:11.949Z,52.22
2023-03-29T10:08:47.799Z,53.22
2023-03-29T10:11:38.510Z,53.85
2023-03-29T10:14:14.956Z,52.47
2023-03-29T10:16:46.774Z,52.10
2023-03-29T10:19:33.382Z,53.07
2023-03-29T10:22:09.799Z,51.73
2023-03-29T10:24:40.358Z,51.24
2023-03-29T10:27:12.493Z,50.44
2023-03-29T10:29:44.189Z,50.20
2023-03-29T10:32:35.209Z,50.95
2023-03-29T10:35:18.035Z,51.42
2023-03-29T10:37:52.822Z,51.77
2023-03-29T10:40:27.442Z,52.35
2023-03-29T10:43:03.315Z,53.36
2023-03-29T10:45:37.787Z,52.33
2023-03-29T10:48:15.408Z,52.35
2023-03-29T10:50:52.956Z,51.36
2023-03-29T10:53:34.260Z,51.38
2023-03-29T10:56:22.968Z,52.30
2023-03-29T10:58:59.616Z,51.13
2023-03-29T11:01:55.996Z,51.28
2023-03-29T11:04:57.359Z,51.55
2023-03-29T11:07:36.409Z,51.11
2023-03-29T11:10:45.612Z,51.73
2023-03-29T11:13:46.473Z,51.62
2023-03-29T11:16:20.259Z,52.63
2023-03-29T11:19:11.980Z,52.45
2023-03-29T11:22:00.729Z,51.58
2023-03-29T11:24:59.596Z,50.63
2023-03-29T11:27:36.358Z,50.50
2023-03-29T11:30:19.608Z,50.98
2023-03-29T11:33:07.357Z,51.04
2023-03-29T11:36:14.726Z,51.26
2023-03-29T11:38:51.665Z,49.56
2023-03-29T11:41:27.904Z,50.08
2023-03-29T11:44:07.107Z,48.38
2023-03-29T11:46:49.573Z,48.31
2023-03-29T11:49:25.815Z,48.66
2023-03-29T11:52:22.615Z,48.81
2023-03-29T11:55:03.686Z,48.85
2023-03-29T11:57:53.737Z,49.23
2023-03-29T12:00:51.977Z,49.84
2023-03-29T12:03:47.234Z,48.97
2023-03-29T12:06:29.437Z,48.32
2023-03-29T12:09:04.120Z,46.94
2023-03-29T12:11:43.569Z,47.20
2023-03-29T12:14:27.967Z,46.96
2023-03-29T12:17:04.272Z,47.07
2023-03-29T12:19:43.187Z,48.27
2023-03-29T12:22:13.944Z,48.85
2023-03-29T12:24:47.137Z,49.24
2023-03-29T12:27:27.109Z,49.36
2023-03-29T12:30:34.239Z,49.75
2023-03-29T12:33:28.285Z,48.90
2023-03-29T12:36:30.152Z,48.73
2023-03-29T12:39:00.938Z,49.59
2023-03-29T12:41:34.812Z,49.78
2023-03-29T12:44:07.764Z,49.64
2023-03-29T12:46:38.772Z,49.81
2023-03-29T12:49:16.599Z,49.48
2023-03-29T12:51:48.183Z,48.95
2023-03-29T12:54:26.805Z,49.09
2023-03-29T12:57:03.255Z,49.39
2023-03-29T12:59:43.318Z,50.30
2023-03-29T13:02:19.387Z,49.93
2023-03-29T13:04:53.186Z,49.73
2023-03-29T13:07:26.847Z,49.36
2023-03-29T13:10:04.040Z,49.62
2023-03-29T13:12:43.384Z,49.08
2023-03-29T13:15:19.941Z,49.16
2023-03-29T13:17:59.310Z,48.79
2023-03-29T13:20:42.186Z,48.67
2023-03-29T13:23:21.317Z,48.45
2023-03-29T13:26:22.022Z,47.76
2023-03-29T13:29:28.537Z,48.22
2023-03-29T13:32:08.823Z,49.08
2023-03-29T13:35:05.806Z,49.26
2023-03-29T13:38:08.038Z,50.02
2023-03-29T13:40:44.355Z,50.08
2023-03-29T13:43:24.045Z,50.48
2023-03-29T13:46:04.027Z,50.71
2023-03-29T13:48:37.890Z,51.01
2023-03-29T13:51:24.647Z,51.05
2023-03-29T13:54:20.872Z,50.87
2023-03-29T13:57:06.869Z,50.58
2023-03-29T13:59:45.717Z,51.17
2023-03-29T14:02:22.956Z,50.31
2023-03-29T14:04:54.319Z,50.82
2023-03-29T14:07:27.310Z,50.09
2023-03-29T14:10:01.094Z,50.76
2023-03-29T14:12:41.126Z,50.85
2023-03-29T14:15:22.996Z,51.36
2023-03-29T14:18:00.662Z,52.90
2023-03-29T14:20:33.567Z,52.23
2023-03-29T14:23:10.322Z,52.51
2023-03-29T14:25:42.649Z,52.90
2023-03-29T14:28:31.336Z,53.55
2023-03-29T14:31:02.102Z,53.72
2023-03-29T14:33:35.853Z,53.93
2023-03-29T14:36:13.100Z,53.96
2023-03-29T14:38:47.920Z,54.18
2023-03-29T14:41:24.269Z,53.76
2023-03-29T14:43:56.876Z,54.58
2023-03-29T14:46:28.019Z,54.21
2023-03-29T14:49:02.291Z,54.37
2023-03-29T14:51:32.985Z,54.78
2023-03-29T14:54:07.136Z,54.56
2023-03-29T14:56:38.617Z,54.82
2023-03-29T14:59:31.558Z,55.25
2023-03-29T15:02:02.208Z,55.66
2023-03-29T15:04:37.775Z,55.52
2023-03-29T15:07:09.309Z,55.38
2023-03-29T15:09:41.569Z,55.96
2023-03-29T15:12:15.463Z,56.19
2023-03-29T15:14:48.160Z,56.74
2023-03-29T15:17:33.520Z,56.98
2023-03-29T15:20:04.476Z,57.17
2023-03-29T15:22:35.832Z,58.51
2023-03-29T15:25:18.308Z,59.79
2023-03-29T15:27:51.597Z,60.69
2023-03-29T15:30:25.168Z,61.05
2023-03-29T15:32:55.903Z,60.84
2023-03-29T15:35:27.021Z,60.69
2023-03-29T15:38:01.168Z,61.09
2023-03-29T15:40:31.915Z,60.23
2023-03-29T15:43:03.018Z,60.35
2023-03-29T15:45:35.274Z,60.29
2023-03-29T15:48:18.615Z,60.12
2023-03-29T15:50:50.616Z,60.80
2023-03-29T15:53:23.478Z,60.44
2023-03-29T15:55:56.227Z,60.26
2023-03-29T15:58:32.670Z,60.42
2023-03-29T16:01:13.125Z,60.71
2023-03-29T16:03:47.848Z,60.82
2023-03-29T16:06:20.652Z,60.66
2023-03-29T16:08:52.370Z,60.74
2023-03-29T16:11:24.157Z,60.80
2023-03-29T16:13:56.546Z,60.74
2023-03-29T16:16:29.697Z,60.05
2023-03-29T16:19:03.303Z,59.95
2023-03-29T16:21:33.865Z,60.58
2023-03-29T16:24:05.166Z,60.15
2023-03-29T16:26:37.431Z,60.43
2023-03-29T16:29:10.054Z,60.64
2023-03-29T16:31:40.766Z,60.54
2023-03-29T16:34:13.588Z,60.46
2023-03-29T16:36:47.084Z,60.79
2023-03-29T16:39:18.473Z,60.94
2023-03-29T16:41:51.128Z,61.02
2023-03-29T16:44:26.162Z,61.11
2023-03-29T16:47:00.772Z,61.07
2023-03-29T16:49:32.456Z,61.44
2023-03-29T16:52:04.605Z,61.88
2023-03-29T16:54:35.226Z,62.00
2023-03-29T16:57:10.239Z,62.31
2023-03-29T16:59:45.015Z,62.25
2023-03-29T17:02:17.132Z,62.64
2023-03-29T17:04:47.778Z,62.41
2023-03-29T17:07:18.802Z,62.55
2023-03-29T17:09:49.377Z,62.41
2023-03-29T17:12:21.118Z,62.78
2023-03-29T17:14:52.642Z,63.15
2023-03-29T17:17:23.512Z,63.42
2023-03-29T17:19:57.073Z,63.42
2023-03-29T17:22:28.349Z,63.35
2023-03-29T17:24:58.936Z,63.43
2023-03-29T17:27:30.469Z,63.36
2023-03-29T17:30:02.718Z,63.66
2023-03-29T17:32:36.350Z,63.93
2023-03-29T17:35:07.025Z,64.24
2023-03-29T17:37:37.795Z,64.64
2023-03-29T17:40:11.204Z,64.46
2023-03-29T17:42:44.668Z,64.60
2023-03-29T17:45:16.510Z,64.72
2023-03-29T17:47:47.314Z,64.49
2023-03-29T17:50:19.551Z,64.12
2023-03-29T17:52:52.912Z,63.90
2023-03-29T17:55:23.532Z,64.91
2023-03-29T17:57:54.218Z,65.31
2023-03-29T18:00:25.062Z,65.02
2023-03-29T18:02:55.690Z,65.76
2023-03-29T18:05:27.549Z,65.66
2023-03-29T18:07:58.445Z,65.55
2023-03-29T18:10:28.990Z,65.98
2023-03-29T18:13:02.029Z,65.89
2023-03-29T18:15:32.620Z,65.87
2023-03-29T18:18:03.370Z,65.33
2023-03-29T18:20:33.907Z,66.50
2023-03-29T18:23:05.670Z,66.73
2023-03-29T18:25:36.104Z,66.72
2023-03-29T18:28:08.186Z,66.56
2023-03-29T18:30:39.258Z,66.51
2023-03-29T18:33:10.339Z,66.13
2023-03-29T18:35:40.988Z,66.76
2023-03-29T18:38:12.571Z,66.09
2023-03-29T18:40:44.128Z,66.28
2023-03-29T18:43:15.195Z,66.54
2023-03-29T18:45:47.921Z,66.89
2023-03-29T18:48:18.669Z,66.47
2023-03-29T18:50:49.381Z,67.03
2023-03-29T18:53:23.012Z,66.86
2023-03-29T18:55:53.470Z,66.89
2023-03-29T18:58:24.383Z,67.14
2023-03-29T19:00:54.934Z,66.80
2023-03-29T19:03:27.095Z,67.29
2023-03-29T19:05:58.083Z,67.38
2023-03-29T19:08:30.208Z,67.67
2023-03-29T19:11:05.683Z,67.82
2023-03-29T19:13:36.999Z,67.80
2023-03-29T19:16:09.053Z,67.75
2023-03-29T19:18:39.706Z,67.75
2023-03-29T19:21:10.661Z,68.23
2023-03-29T19:23:41.683Z,68.23
2023-03-29T19:26:12.462Z,68.71
2023-03-29T19:28:43.247Z,68.54
2023-03-29T19:31:14.015Z,68.81
2023-03-29T19:33:44.832Z,69.11
2023-03-29T19:36:18.869Z,69.16
2023-03-29T19:38:51.520Z,68.81
2023-03-29T19:41:25.369Z,69.31
2023-03-29T19:43:56.034Z,69.78
2023-03-29T19:46:28.837Z,69.74
2023-03-29T19:49:00.599Z,69.89
2023-03-29T19:51:31.394Z,69.84
2023-03-29T19:54:02.727Z,70.14
2023-03-29T19:56:33.534Z,69.69
2023-03-29T19:59:06.814Z,69.83
2023-03-29T20:01:39.423Z,70.17
2023-03-29T20:04:11.875Z,70.10
2023-03-29T20:06:43.960Z,70.33
2023-03-29T20:09:16.191Z,70.40
2023-03-29T20:11:49.793Z,70.46
2023-03-29T20:14:20.850Z,70.12
2023-03-29T20:16:54.372Z,70.26
2023-03-29T20:19:27.412Z,70.13
2023-03-29T20:21:58.868Z,70.59
2023-03-29T20:24:32.735Z,70.02
2023-03-29T20:27:04.457Z,69.74
2023-03-29T20:29:37.346Z,70.31
2023-03-29T20:32:09.137Z,70.39
2023-03-29T20:34:42.012Z,70.19
2023-03-29T20:37:12.755Z,70.37
2023-03-29T20:39:43.296Z,69.96
2023-03-29T20:42:13.990Z,70.04
2023-03-29T20:44:47.896Z,70.30
2023-03-29T20:47:19.327Z,70.34
2023-03-29T20:49:51.978Z,70.46
2023-03-29T20:52:24.331Z,70.48
2023-03-29T20:54:55.012Z,70.47
2023-03-29T20:57:29.226Z,70.75
2023-03-29T21:00:00.606Z,70.70
2023-03-29T21:02:32.931Z,70.81
2023-03-29T21:05:04.242Z,70.69
2023-03-29T21:07:37.525Z,70.92
2023-03-29T21:10:08.756Z,70.77
2023-03-29T21:12:40.051Z,71.15
2023-03-29T21:15:13.608Z,71.27
2023-03-29T21:17:45.916Z,71.54
2023-03-29T21:20:17.972Z,71.36
2023-03-29T21:22:48.539Z,71.60
2023-03-29T21:25:19.171Z,71.34
2023-03-29T21:27:51.111Z,71.60
2023-03-29T21:30:21.667Z,71.80
2023-03-29T21:32:52.251Z,71.86
2023-03-29T21:35:22.959Z,71.95
2023-03-29T21:37:55.237Z,72.21
2023-03-29T21:40:28.156Z,72.14
2023-03-29T21:42:58.829Z,72.52
2023-03-29T21:45:29.559Z,72.48
2023-03-29T21:48:02.875Z,72.72
2023-03-29T21:50:34.302Z,72.62
2023-03-29T21:53:04.899Z,73.12
2023-03-29T21:55:39.829Z,72.88
2023-03-29T21:58:12.827Z,72.98
2023-03-29T22:00:45.246Z,73.28
2023-03-29T22:03:17.619Z,73.09
2023-03-29T22:05:59.864Z,73.41
2023-03-29T22:08:32.007Z,73.42
2023-03-29T22:11:08.201Z,73.62
2023-03-29T22:13:39.278Z,72.92
2023-03-29T22:16:12.702Z,73.28
2023-03-29T22:18:47.061Z,73.33
2023-03-29T22:21:26.398Z,73.44
2023-03-29T22:23:58.097Z,73.53
2023-03-29T22:26:31.334Z,73.70
2023-03-29T22:29:02.297Z,73.72
2023-03-29T22:31:34.289Z,73.58
2023-03-29T22:34:04.932Z,73.80
2023-03-29T22:36:37.406Z,73.99
2023-03-29T22:39:08.041Z,74.21
2023-03-29T22:41:41.123Z,74.39
2023-03-29T22:44:14.654Z,74.27
2023-03-29T22:46:47.980Z,74.30
2023-03-29T22:49:18.496Z,74.66
2023-03-29T22:51:49.895Z,74.52
2023-03-29T22:54:20.640Z,74.50
2023-03-29T22:56:51.885Z,74.75
2023-03-29T22:59:23.137Z,74.90
2023-03-29T23:01:54.034Z,74.83
2023-03-29T23:04:25.807Z,75.05
2023-03-29T23:06:56.384Z,75.20
2023-03-29T23:09:26.963Z,75.04
2023-03-29T23:11:59.049Z,75.27
2023-03-29T23:14:29.587Z,75.33
2023-03-29T23:17:00.135Z,75.84
2023-03-29T23:19:32.684Z,76.03
